Time;durP1;ratioP1;P1;durP2;ratioP2;P2;SDS_P1;SDS_P2;PMS_P1;PMS_P2;Temp;Humidity;BMP_temperature;BMP_pressure;BME280_temperature;BME280_humidity;BME280_pressure;Samples;Min_cycle;Max_cycle;Signal;HPM_P1;HPM_P2
2021/10/28 00:14:30;;;;;;;68.32;26.13;;;6.60;99.90;;;;;;5046847;28;20083;-74
2021/10/28 00:16:59;;;;;;;63.97;26.27;;;6.60;99.90;;;;;;5028908;28;20056;-75
2021/10/28 00:19:29;;;;;;;106.13;33.83;;;6.50;99.90;;;;;;5028651;28;20044;-75
2021/10/28 00:21:56;;;;;;;68.20;25.92;;;6.30;99.90;;;;;;5046098;28;20142;-75
2021/10/28 00:24:23;;;;;;;74.10;26.58;;;6.20;99.90;;;;;;5062069;28;20183;-76
2021/10/28 00:26:50;;;;;;;93.80;33.05;;;6.20;99.90;;;;;;5029140;28;20560;-74
2021/10/28 00:29:19;;;;;;;86.68;30.52;;;6.40;99.90;;;;;;5046595;28;20507;-76
2021/10/28 00:31:48;;;;;;;106.22;34.63;;;6.50;99.90;;;;;;5027861;28;20056;-75
2021/10/28 00:34:17;;;;;;;77.88;31.08;;;6.60;99.90;;;;;;5028762;28;20037;-74
2021/10/28 00:36:46;;;;;;;86.50;29.98;;;6.60;99.90;;;;;;5028091;28;20059;-76
2021/10/28 00:39:13;;;;;;;89.32;31.65;;;6.50;99.90;;;;;;5010632;28;20049;-74
2021/10/28 00:41:40;;;;;;;89.38;32.35;;;6.30;99.90;;;;;;5012493;28;20068;-74
2021/10/28 00:44:08;;;;;;;107.85;35.10;;;6.30;99.90;;;;;;5028693;28;20102;-76
2021/10/28 00:46:37;;;;;;;76.63;27.13;;;6.30;99.90;;;;;;5028373;28;20102;-74
2021/10/28 00:49:08;;;;;;;101.65;33.78;;;6.10;99.90;;;;;;5032343;28;20048;-75
2021/10/28 00:51:35;;;;;;;115.90;38.50;;;6.10;99.90;;;;;;5027080;28;20048;-75
2021/10/28 00:54:05;;;;;;;117.82;38.72;;;6.30;99.90;;;;;;5025939;28;20530;-75
2021/10/28 00:56:32;;;;;;;127.72;37.38;;;6.30;99.90;;;;;;5006777;28;20139;-75
2021/10/28 00:59:02;;;;;;;117.95;39.40;;;6.20;99.90;;;;;;4992446;28;20100;-74
2021/10/28 01:01:29;;;;;;;138.27;41.67;;;6.30;99.90;;;;;;5025578;28;20099;-74
2021/10/28 01:03:57;;;;;;;148.80;46.83;;;6.40;99.90;;;;;;5026115;28;20063;-75
2021/10/28 01:06:24;;;;;;;128.45;42.60;;;6.60;99.90;;;;;;5008045;28;20400;-74
2021/10/28 01:08:51;;;;;;;149.18;45.28;;;6.50;99.90;;;;;;5041253;28;20053;-73
2021/10/28 01:11:19;;;;;;;142.73;44.33;;;6.60;99.90;;;;;;5010272;28;20100;-75
2021/10/28 01:13:46;;;;;;;160.65;48.38;;;6.60;99.90;;;;;;5044747;28;20075;-75
2021/10/28 01:16:13;;;;;;;162.18;48.72;;;6.60;99.90;;;;;;5027374;28;20048;-75
2021/10/28 01:18:40;;;;;;;152.80;47.40;;;6.70;99.90;;;;;;5043851;28;20052;-75
2021/10/28 01:21:09;;;;;;;136.60;43.85;;;6.80;99.90;;;;;;5043931;28;20041;-74
2021/10/28 01:23:40;;;;;;;140.27;46.33;;;6.90;99.90;;;;;;5044758;28;20150;-74
2021/10/28 01:26:10;;;;;;;177.93;52.17;;;6.90;99.90;;;;;;5026719;28;20080;-77
2021/10/28 01:28:48;;;;;;;137.02;48.72;;;7.10;99.90;;;;;;5061408;28;20507;-75
2021/10/28 01:31:15;;;;;;;151.20;50.03;;;7.20;99.90;;;;;;5023661;28;20053;-74
2021/10/28 01:33:42;;;;;;;176.80;53.22;;;7.20;99.90;;;;;;5008568;28;20048;-72
2021/10/28 01:36:10;;;;;;;170.52;51.83;;;7.20;99.90;;;;;;5027059;28;20767;-75
2021/10/28 01:38:38;;;;;;;143.93;49.03;;;7.30;99.90;;;;;;5011601;28;20443;-74
2021/10/28 01:41:06;;;;;;;176.23;50.08;;;7.10;99.90;;;;;;5010293;28;20110;-73
2021/10/28 01:43:34;;;;;;;154.38;46.65;;;7.00;99.90;;;;;;5022008;28;20082;-73
2021/10/28 01:46:01;;;;;;;154.70;47.67;;;7.10;99.90;;;;;;5043259;28;20071;-74
2021/10/28 01:48:29;;;;;;;156.25;47.20;;;7.10;99.90;;;;;;5023016;28;20052;-77
2021/10/28 01:50:56;;;;;;;172.27;49.97;;;7.10;99.90;;;;;;5025726;28;20076;-74
2021/10/28 01:53:22;;;;;;;150.20;50.60;;;7.20;99.90;;;;;;5040062;28;20057;-75
2021/10/28 01:55:49;;;;;;;150.65;48.95;;;7.20;99.90;;;;;;5044852;28;20049;-73
2021/10/28 01:58:22;;;;;;;178.30;50.97;;;7.10;99.90;;;;;;5027628;28;20061;-75
2021/10/28 02:00:50;;;;;;;165.82;49.08;;;7.10;99.90;;;;;;5008146;28;20044;-73
2021/10/28 02:03:18;;;;;;;159.30;46.95;;;7.10;99.90;;;;;;5054105;28;20481;-72
2021/10/28 02:05:45;;;;;;;168.65;48.20;;;6.80;99.90;;;;;;5029069;28;20048;-72
2021/10/28 02:08:12;;;;;;;153.05;48.28;;;6.70;99.90;;;;;;5024386;28;20049;-75
2021/10/28 02:10:39;;;;;;;176.32;50.88;;;6.80;99.90;;;;;;5009688;28;20057;-72
2021/10/28 02:13:06;;;;;;;139.02;44.50;;;6.80;99.90;;;;;;5048312;28;20061;-73
2021/10/28 02:15:33;;;;;;;157.57;48.38;;;6.80;99.90;;;;;;5048582;28;20045;-73
2021/10/28 02:18:00;;;;;;;168.55;49.75;;;6.70;99.90;;;;;;5031833;28;20064;-72
2021/10/28 02:20:27;;;;;;;179.00;52.47;;;6.60;99.90;;;;;;5029310;28;20124;-73
2021/10/28 02:22:54;;;;;;;214.68;55.15;;;6.50;99.90;;;;;;5030479;28;20068;-71
2021/10/28 02:25:21;;;;;;;178.85;52.55;;;6.80;99.90;;;;;;5015115;28;20451;-75
2021/10/28 02:27:53;;;;;;;190.60;54.17;;;6.80;99.90;;;;;;5015678;28;20115;-72
2021/10/28 02:30:20;;;;;;;184.40;53.03;;;6.80;99.90;;;;;;5013119;28;20107;-72
2021/10/28 02:32:47;;;;;;;180.32;53.22;;;6.80;99.90;;;;;;5056102;28;20171;-74
2021/10/28 02:35:15;;;;;;;190.98;54.78;;;6.90;99.90;;;;;;5044594;28;20323;-74
2021/10/28 02:37:43;;;;;;;181.85;52.67;;;7.00;99.90;;;;;;5049343;28;20443;-72
2021/10/28 02:40:11;;;;;;;173.70;50.63;;;7.00;99.90;;;;;;5008475;28;20507;-73
2021/10/28 02:42:39;;;;;;;167.68;49.05;;;7.10;99.90;;;;;;5028322;28;20053;-73
2021/10/28 02:45:08;;;;;;;190.07;49.15;;;7.10;99.90;;;;;;5010163;28;20103;-74
2021/10/28 02:47:35;;;;;;;181.30;51.35;;;6.90;99.90;;;;;;5029124;28;20176;-73
2021/10/28 02:50:03;;;;;;;177.52;49.95;;;6.90;99.90;;;;;;5045780;28;20053;-74
2021/10/28 02:52:29;;;;;;;174.65;47.67;;;7.00;99.90;;;;;;5017213;28;20075;-75
2021/10/28 02:54:56;;;;;;;148.25;43.15;;;6.90;99.90;;;;;;5031114;28;20044;-73
2021/10/28 02:57:23;;;;;;;163.32;46.33;;;6.60;99.90;;;;;;5030969;28;20404;-74
2021/10/28 02:59:50;;;;;;;187.07;49.22;;;6.50;99.90;;;;;;5029846;28;20426;-76
2021/10/28 03:02:17;;;;;;;130.32;40.33;;;6.40;99.90;;;;;;5015426;28;20045;-74
2021/10/28 03:04:44;;;;;;;180.20;48.67;;;6.40;99.90;;;;;;5032264;28;20053;-75
2021/10/28 03:07:11;;;;;;;146.40;45.20;;;6.50;99.90;;;;;;5030394;28;20507;-76
2021/10/28 03:09:38;;;;;;;157.05;46.67;;;6.70;99.90;;;;;;5029150;28;20067;-74
2021/10/28 03:12:06;;;;;;;148.90;45.97;;;6.70;99.90;;;;;;5029784;28;20396;-76
2021/10/28 03:14:40;;;;;;;135.65;44.55;;;6.70;99.90;;;;;;5046900;28;20056;-77
2021/10/28 03:27:57;;;;;;;146.32;47.80;;;6.80;99.90;;;;;;5029729;28;20053;-76
2021/10/28 03:30:25;;;;;;;168.63;53.17;;;6.80;99.90;;;;;;5046302;28;20527;-78
2021/10/28 03:32:52;;;;;;;168.63;50.28;;;6.90;99.90;;;;;;5047379;28;20048;-79
2021/10/28 03:35:18;;;;;;;172.40;51.58;;;7.10;99.90;;;;;;5010192;28;20111;-77
2021/10/28 03:37:52;;;;;;;177.32;47.83;;;7.10;99.90;;;;;;5022999;28;20045;-77
2021/10/28 03:59:17;;;;;;;167.57;47.70;;;6.80;99.90;;;;;;5043900;28;20079;-77
2021/10/28 04:18:30;;;;;;;161.57;47.58;;;6.50;99.90;;;;;;5035899;28;20431;-77
2021/10/28 04:28:53;;;;;;;151.65;46.78;;;6.30;99.90;;;;;;5043252;28;20049;-78
2021/10/28 04:29:12;;;;;;;139.88;44.83;;;6.20;99.90;;;;;;5035087;28;20111;-76
2021/10/28 04:31:40;;;;;;;213.27;51.58;;;6.00;99.90;;;;;;5023849;28;20072;-77
2021/10/28 04:34:09;;;;;;;195.75;52.50;;;5.90;99.90;;;;;;5026977;28;20507;-77
2021/10/28 04:36:37;;;;;;;172.93;50.45;;;6.00;99.90;;;;;;5027677;28;20286;-79
2021/10/28 04:39:09;;;;;;;197.93;53.10;;;6.10;99.90;;;;;;5044269;28;20122;-79
2021/10/28 04:41:37;;;;;;;296.27;62.10;;;6.10;99.90;;;;;;5060750;28;20095;-78
2021/10/28 04:44:10;;;;;;;214.15;55.58;;;6.10;99.90;;;;;;5028517;28;20048;-78
2021/10/28 04:46:38;;;;;;;219.45;57.75;;;6.20;99.90;;;;;;5045795;28;20060;-78
2021/10/28 04:49:05;;;;;;;210.85;56.85;;;6.20;99.90;;;;;;5056139;28;20075;-78
2021/10/28 04:51:33;;;;;;;193.00;54.88;;;6.10;99.90;;;;;;5051217;28;20045;-76
2021/10/28 04:54:00;;;;;;;247.57;59.05;;;6.20;99.90;;;;;;5026348;28;20167;-75
2021/10/28 04:56:26;;;;;;;247.68;64.35;;;6.30;99.90;;;;;;5023841;28;20091;-77
2021/10/28 04:58:53;;;;;;;213.18;59.88;;;6.30;99.90;;;;;;5025071;28;20053;-76
2021/10/28 05:01:22;;;;;;;234.68;64.45;;;6.50;99.90;;;;;;5030667;28;20056;-78
2021/10/28 05:03:49;;;;;;;203.93;62.42;;;6.70;99.90;;;;;;5026989;28;20144;-77
2021/10/28 05:06:16;;;;;;;204.95;61.90;;;6.90;99.90;;;;;;4994582;28;20068;-77
2021/10/28 05:08:43;;;;;;;223.18;65.57;;;7.00;99.90;;;;;;5010976;28;20049;-76
2021/10/28 05:11:10;;;;;;;296.73;71.25;;;7.00;99.90;;;;;;5044435;28;20491;-79
2021/10/28 05:13:37;;;;;;;240.52;66.43;;;7.00;99.90;;;;;;5010137;28;20503;-77
2021/10/28 05:16:05;;;;;;;253.98;65.35;;;7.10;99.90;;;;;;4993478;28;20236;-77
2021/10/28 05:18:39;;;;;;;226.25;64.07;;;7.10;99.90;;;;;;5024550;28;20036;-77
2021/10/28 05:21:10;;;;;;;252.20;66.70;;;7.10;99.90;;;;;;5034876;28;20044;-77
2021/10/28 05:23:38;;;;;;;220.35;62.10;;;7.10;99.90;;;;;;5005658;28;20122;-75
2021/10/28 05:26:05;;;;;;;225.65;61.55;;;7.10;99.90;;;;;;4974076;28;20053;-77
2021/10/28 05:28:33;;;;;;;263.95;69.47;;;7.00;99.90;;;;;;5025792;28;20248;-76
2021/10/28 05:31:00;;;;;;;276.77;67.88;;;7.00;99.90;;;;;;5007987;28;20049;-76
2021/10/28 05:33:27;;;;;;;239.85;64.50;;;6.90;99.90;;;;;;5045375;28;20061;-77
2021/10/28 05:35:54;;;;;;;201.23;58.65;;;7.00;99.90;;;;;;5045172;28;20450;-78
2021/10/28 05:38:21;;;;;;;224.82;59.80;;;7.10;99.90;;;;;;5023729;28;20058;-77
2021/10/28 05:40:49;;;;;;;200.73;57.92;;;7.10;99.90;;;;;;5028619;28;20448;-77
2021/10/28 05:43:15;;;;;;;226.27;61.97;;;7.20;99.90;;;;;;5031273;28;20064;-76
2021/10/28 05:45:44;;;;;;;273.15;66.38;;;7.30;99.90;;;;;;5030831;28;20052;-76
2021/10/28 05:48:10;;;;;;;208.07;58.00;;;7.30;99.90;;;;;;5038389;28;20037;-76
2021/10/28 05:50:40;;;;;;;184.55;56.10;;;7.30;99.90;;;;;;5028180;28;20558;-76
2021/10/28 05:53:08;;;;;;;170.65;56.38;;;7.30;99.90;;;;;;5031254;28;20051;-80
2021/10/28 05:55:35;;;;;;;245.90;64.15;;;7.50;99.90;;;;;;5030072;28;20047;-77
2021/10/28 05:58:02;;;;;;;241.80;62.35;;;7.50;99.90;;;;;;5031728;28;20511;-76
2021/10/28 06:00:30;;;;;;;178.32;51.33;;;7.50;99.90;;;;;;5033538;28;20477;-78
2021/10/28 06:02:57;;;;;;;220.73;60.67;;;7.30;99.90;;;;;;5048968;28;20048;-76
2021/10/28 06:05:24;;;;;;;210.90;56.70;;;7.30;99.90;;;;;;5046880;28;20045;-76
2021/10/28 06:07:50;;;;;;;217.43;56.85;;;7.20;99.90;;;;;;5052621;28;20049;-76
2021/10/28 06:10:19;;;;;;;258.02;63.05;;;7.20;99.90;;;;;;5034454;28;20505;-77
2021/10/28 06:12:48;;;;;;;247.25;62.03;;;7.20;99.90;;;;;;5007972;28;20045;-78
2021/10/28 06:15:16;;;;;;;235.23;60.63;;;7.30;99.90;;;;;;5044406;28;20370;-76
2021/10/28 06:17:48;;;;;;;165.75;53.42;;;7.20;99.90;;;;;;5034233;28;20045;-77
2021/10/28 06:20:14;;;;;;;286.30;66.75;;;7.30;99.90;;;;;;5048638;28;20118;-75
2021/10/28 06:22:41;;;;;;;254.30;60.25;;;7.40;99.90;;;;;;5000000;28;20496;-76
2021/10/28 06:25:09;;;;;;;243.88;61.92;;;7.30;99.90;;;;;;5058921;28;20048;-76
2021/10/28 06:27:37;;;;;;;215.15;58.35;;;7.20;99.90;;;;;;5033671;28;20055;-76
2021/10/28 06:30:05;;;;;;;204.27;54.17;;;7.10;99.90;;;;;;5051461;28;20434;-76
2021/10/28 06:32:32;;;;;;;213.13;57.38;;;7.20;99.90;;;;;;5032078;28;20107;-75
2021/10/28 06:35:03;;;;;;;186.68;53.25;;;7.20;99.90;;;;;;5034088;28;20052;-76
2021/10/28 06:37:31;;;;;;;204.73;54.40;;;7.20;99.90;;;;;;5060604;28;20127;-77
2021/10/28 06:39:57;;;;;;;236.05;57.42;;;7.30;99.90;;;;;;5033854;28;20072;-77
2021/10/28 06:42:24;;;;;;;237.07;60.35;;;7.20;99.90;;;;;;5032978;28;20056;-76
2021/10/28 06:44:51;;;;;;;211.60;58.92;;;7.10;99.90;;;;;;5034000;28;20119;-75
2021/10/28 06:47:18;;;;;;;200.50;57.90;;;7.30;99.90;;;;;;5049593;28;20061;-76
2021/10/28 06:49:45;;;;;;;197.00;56.40;;;7.50;99.90;;;;;;5034196;28;20060;-75
2021/10/28 06:52:13;;;;;;;189.48;55.85;;;7.50;99.90;;;;;;5023269;28;20080;-74
2021/10/28 06:54:46;;;;;;;207.00;57.03;;;7.60;99.90;;;;;;5030833;28;20037;-75
2021/10/28 07:02:45;;;;;;;164.93;51.42;;;7.70;99.90;;;;;;5031066;28;20049;-76
2021/10/28 07:05:12;;;;;;;217.82;56.65;;;7.80;99.90;;;;;;5016364;28;20067;-76
2021/10/28 07:07:39;;;;;;;166.02;53.00;;;7.90;99.90;;;;;;5031156;28;20147;-75
2021/10/28 07:12:58;;;;;;;161.80;54.38;;;8.00;99.90;;;;;;5030616;28;20052;-76
2021/10/28 07:21:05;;;;;;;162.68;48.35;;;8.20;99.90;;;;;;5039564;28;20053;-76
2021/10/28 07:32:12;;;;;;;152.13;49.28;;;8.40;99.90;;;;;;5028945;28;20048;-76
2021/10/28 07:34:54;;;;;;;147.05;48.00;;;8.40;99.90;;;;;;5032270;28;20056;-77
2021/10/28 07:57:20;;;;;;;106.15;41.25;;;8.90;99.90;;;;;;5024498;28;20341;-76
2021/10/28 08:14:14;;;;;;;88.07;36.67;;;9.60;99.90;;;;;;5049854;28;20053;-76
2021/10/28 08:17:00;;;;;;;87.03;37.92;;;9.70;99.90;;;;;;5029151;28;20324;-77
2021/10/28 08:22:41;;;;;;;69.72;33.38;;;10.00;99.90;;;;;;5023180;28;20054;-76
2021/10/28 08:30:40;;;;;;;65.07;35.58;;;10.40;99.90;;;;;;5026728;28;20053;-77
2021/10/28 08:33:06;;;;;;;58.05;32.08;;;10.60;99.90;;;;;;5028325;28;20048;-75
2021/10/28 08:35:50;;;;;;;52.20;29.98;;;10.80;99.90;;;;;;5030594;28;20049;-75
2021/10/28 08:38:17;;;;;;;44.15;27.05;;;11.00;99.90;;;;;;5025092;28;20120;-75
2021/10/28 08:40:44;;;;;;;40.47;25.42;;;11.10;99.90;;;;;;5018194;28;20439;-75
2021/10/28 08:43:12;;;;;;;39.92;25.98;;;11.20;99.90;;;;;;5037255;28;20045;-75
2021/10/28 08:45:40;;;;;;;45.97;27.15;;;11.30;99.90;;;;;;5029277;28;20052;-75
2021/10/28 08:48:08;;;;;;;33.72;23.38;;;11.50;99.90;;;;;;5047780;28;20075;-75
2021/10/28 08:50:50;;;;;;;31.80;21.52;;;11.60;99.90;;;;;;5018411;28;20049;-79
2021/10/28 08:55:54;;;;;;;32.35;22.02;;;11.50;99.90;;;;;;5023738;28;20156;-76
2021/10/28 09:32:38;;;;;;;19.13;14.63;;;13.00;99.90;;;;;;5027317;28;20102;-75
2021/10/28 09:44:08;;;;;;;16.40;12.88;;;13.30;99.90;;;;;;5047945;28;20678;-77
2021/10/28 09:51:52;;;;;;;16.23;14.52;;;13.50;99.90;;;;;;5028149;28;20060;-75
2021/10/28 09:54:33;;;;;;;;;;;13.40;99.90;;;;;;5030603;28;20422;-75
2021/10/28 09:59:48;;;;;;;15.02;13.02;;;13.40;99.90;;;;;;5041072;28;20103;-75
2021/10/28 10:05:00;;;;;;;14.63;13.20;;;13.70;99.90;;;;;;5030076;28;20530;-75
2021/10/28 10:07:27;;;;;;;16.15;12.32;;;13.80;99.90;;;;;;5014649;28;20041;-75
2021/10/28 10:09:54;;;;;;;14.18;12.63;;;13.90;99.90;;;;;;5012101;28;20052;-76
2021/10/28 10:12:21;;;;;;;14.40;12.95;;;13.90;99.90;;;;;;5030628;28;20099;-76
2021/10/28 10:14:49;;;;;;;14.70;12.13;;;14.10;99.90;;;;;;5028459;28;20056;-72
2021/10/28 10:17:19;;;;;;;14.15;12.65;;;14.00;99.90;;;;;;5026688;28;20154;-72
2021/10/28 10:19:50;;;;;;;13.60;12.13;;;14.30;99.90;;;;;;5043810;28;20056;-72
2021/10/28 10:22:41;;;;;;;12.30;10.90;;;14.50;99.90;;;;;;5028746;28;20080;-72
2021/10/28 10:25:49;;;;;;;12.52;11.27;;;14.80;99.90;;;;;;5012197;28;20052;-72
2021/10/28 10:29:28;;;;;;;11.95;10.90;;;14.80;99.90;;;;;;5042263;28;20531;-72
2021/10/28 12:43:38;;;;;;;13.93;12.95;;;15.60;99.90;;;;;;5028375;28;20049;-75
2021/10/28 12:46:55;;;;;;;14.23;13.32;;;15.70;99.90;;;;;;5026656;28;20494;-75
2021/10/28 12:52:41;;;;;;;13.45;12.52;;;15.90;99.90;;;;;;5044416;28;20239;-76
2021/10/28 13:53:14;;;;;;;14.05;13.25;;;16.40;99.90;;;;;;5007503;28;20053;-77
2021/10/28 13:58:50;;;;;;;14.38;13.23;;;16.20;99.90;;;;;;5027590;28;20052;-77
2021/10/28 14:20:47;;;;;;;13.43;12.63;;;15.30;99.90;;;;;;5047773;28;20051;-77
2021/10/28 14:26:11;;;;;;;14.18;13.13;;;15.20;99.90;;;;;;5051897;28;20244;-76
2021/10/28 14:59:44;;;;;;;13.88;12.88;;;14.80;99.90;;;;;;5048439;28;20061;-75
2021/10/28 15:42:11;;;;;;;12.75;11.70;;;13.70;99.90;;;;;;5046791;28;20052;-73
2021/10/28 16:21:47;;;;;;;11.48;10.25;;;12.90;99.90;;;;;;5026511;28;20080;-71
2021/10/28 16:23:09;;;;;;;11.38;10.15;;;12.10;99.90;;;;;;5026855;28;20053;-73
2021/10/28 16:25:36;;;;;;;11.60;10.40;;;12.00;99.90;;;;;;5027679;28;20045;-71
2021/10/28 16:28:04;;;;;;;15.02;10.95;;;11.90;99.90;;;;;;5028230;28;20048;-72
2021/10/28 16:30:31;;;;;;;15.75;10.93;;;11.80;99.90;;;;;;5028416;28;20059;-73
2021/10/28 16:32:58;;;;;;;12.73;11.40;;;11.80;99.90;;;;;;5047782;28;20049;-71
2021/10/28 16:35:25;;;;;;;16.95;12.15;;;11.70;99.90;;;;;;5046283;28;20052;-73
2021/10/28 16:37:52;;;;;;;13.93;12.18;;;11.70;99.90;;;;;;5028973;28;20140;-72
2021/10/28 16:40:19;;;;;;;16.50;12.50;;;11.60;99.90;;;;;;5047559;28;20057;-72
2021/10/28 16:42:46;;;;;;;17.40;15.60;;;11.60;99.90;;;;;;5012344;28;20048;-70
2021/10/28 16:45:13;;;;;;;16.40;12.02;;;11.50;99.90;;;;;;5047455;28;20052;-72
2021/10/28 16:47:40;;;;;;;15.13;12.18;;;11.40;99.90;;;;;;5013072;28;20465;-72
2021/10/28 16:50:08;;;;;;;20.80;11.70;;;11.40;99.90;;;;;;5044659;28;20060;-73
2021/10/28 16:52:35;;;;;;;16.05;12.88;;;11.20;99.90;;;;;;5029678;28;20191;-74
2021/10/28 16:55:03;;;;;;;31.50;18.00;;;11.20;99.90;;;;;;5030230;28;20094;-72
2021/10/28 16:57:29;;;;;;;30.42;19.30;;;11.10;99.90;;;;;;5009654;28;20056;-71
2021/10/28 16:59:56;;;;;;;22.55;15.82;;;11.00;99.90;;;;;;5045082;28;20060;-73
2021/10/28 17:02:23;;;;;;;25.65;16.05;;;10.90;99.90;;;;;;5026462;28;20041;-72
2021/10/28 17:04:50;;;;;;;21.60;16.65;;;10.90;99.90;;;;;;5028893;28;20503;-72
2021/10/28 17:07:17;;;;;;;24.35;17.77;;;10.70;99.90;;;;;;5045908;28;20055;-71
2021/10/28 17:09:45;;;;;;;25.58;18.10;;;10.70;99.90;;;;;;5012249;28;20047;-72
2021/10/28 17:12:11;;;;;;;25.30;18.52;;;10.60;99.90;;;;;;5045297;28;20138;-73
2021/10/28 17:14:39;;;;;;;26.30;19.13;;;10.40;99.90;;;;;;5029427;28;20067;-73
2021/10/28 17:17:05;;;;;;;33.40;24.23;;;10.30;99.90;;;;;;4996741;28;20095;-72
2021/10/28 17:19:32;;;;;;;30.92;22.15;;;10.20;99.90;;;;;;5046452;28;20044;-73
2021/10/28 17:21:59;;;;;;;33.78;23.05;;;10.10;99.90;;;;;;4995457;28;20061;-75
2021/10/28 17:26:59;;;;;;;34.72;22.50;;;9.80;99.90;;;;;;5042757;28;20045;-74
2021/10/28 17:29:26;;;;;;;29.42;21.48;;;9.80;99.90;;;;;;5013601;28;20099;-71
2021/10/28 17:31:56;;;;;;;35.92;23.17;;;9.70;99.90;;;;;;5047283;28;20526;-74
2021/10/28 17:34:25;;;;;;;38.60;23.75;;;9.60;99.90;;;;;;5045353;28;20049;-71
2021/10/28 17:36:55;;;;;;;42.50;26.35;;;9.50;99.90;;;;;;5045654;28;20048;-75
2021/10/28 17:39:26;;;;;;;44.42;27.30;;;9.40;99.90;;;;;;5044025;28;20059;-72
2021/10/28 17:41:58;;;;;;;39.97;24.73;;;9.30;99.90;;;;;;5011954;28;20071;-73
2021/10/28 17:44:36;;;;;;;45.10;27.17;;;9.10;99.90;;;;;;5012386;28;20745;-73
2021/10/28 17:47:05;;;;;;;44.25;27.58;;;9.00;99.90;;;;;;5028598;28;20045;-73
2021/10/28 17:49:32;;;;;;;47.65;28.33;;;9.00;99.90;;;;;;5028830;28;20049;-73
2021/10/28 17:51:59;;;;;;;55.50;33.78;;;8.90;99.90;;;;;;5029176;28;20068;-72
2021/10/28 17:54:26;;;;;;;54.67;31.92;;;8.80;99.90;;;;;;5029275;28;20454;-73
2021/10/28 17:56:54;;;;;;;58.30;34.08;;;8.60;99.90;;;;;;5014615;28;20052;-72
2021/10/28 17:59:21;;;;;;;77.95;44.58;;;8.50;99.90;;;;;;5030205;28;20115;-71
2021/10/28 18:01:47;;;;;;;62.28;35.33;;;8.30;99.90;;;;;;5048786;28;20118;-73
2021/10/28 18:04:14;;;;;;;113.95;62.75;;;8.30;99.90;;;;;;5022020;28;20113;-73
2021/10/28 18:06:42;;;;;;;82.93;44.60;;;8.20;99.90;;;;;;5046591;28;20045;-73
2021/10/28 18:09:09;;;;;;;77.05;41.60;;;8.00;99.90;;;;;;5029481;28;20052;-73
2021/10/28 18:11:36;;;;;;;77.63;43.58;;;7.90;99.90;;;;;;5045677;28;20056;-73
2021/10/28 18:14:10;;;;;;;79.85;45.75;;;7.80;99.90;;;;;;5028593;28;20070;-72
2021/10/28 18:16:37;;;;;;;84.13;48.08;;;7.60;99.90;;;;;;5042297;28;20053;-74
2021/10/28 18:19:04;;;;;;;93.63;40.80;;;7.50;99.90;;;;;;5044233;28;20060;-73
2021/10/28 18:21:31;;;;;;;84.18;45.17;;;7.50;99.90;;;;;;5020507;28;20044;-74
2021/10/28 18:23:58;;;;;;;84.20;45.45;;;7.40;99.90;;;;;;5025699;28;20481;-72
2021/10/28 18:26:25;;;;;;;85.80;45.92;;;7.30;99.90;;;;;;5060990;28;20056;-73
2021/10/28 18:28:53;;;;;;;87.60;45.35;;;7.20;99.90;;;;;;5032711;28;20569;-72
2021/10/28 18:31:20;;;;;;;83.22;41.95;;;7.10;99.90;;;;;;5025289;28;20095;-71
2021/10/28 18:33:49;;;;;;;83.38;41.78;;;7.10;99.90;;;;;;5020289;28;20503;-74
2021/10/28 18:36:16;;;;;;;82.85;44.25;;;7.10;99.90;;;;;;5043117;28;20095;-72
2021/10/28 18:38:47;;;;;;;81.20;41.88;;;7.10;99.90;;;;;;5025675;28;20491;-72
2021/10/28 18:41:18;;;;;;;82.95;44.00;;;7.10;99.90;;;;;;5026666;28;20521;-72
2021/10/28 18:43:47;;;;;;;82.03;42.15;;;7.10;99.90;;;;;;5026827;28;20041;-71
2021/10/28 18:46:20;;;;;;;81.47;41.90;;;7.00;99.90;;;;;;5027773;28;20072;-72
2021/10/28 18:48:52;;;;;;;78.25;41.58;;;7.00;99.90;;;;;;5030262;28;20395;-73
2021/10/28 18:51:19;;;;;;;81.15;42.38;;;7.00;99.90;;;;;;5001735;28;20407;-71
2021/10/28 18:53:49;;;;;;;92.25;46.40;;;6.90;99.90;;;;;;5045171;28;20083;-73
2021/10/28 18:56:17;;;;;;;71.20;37.60;;;6.90;99.90;;;;;;5029436;28;20262;-73
2021/10/28 18:58:45;;;;;;;86.03;45.15;;;6.90;99.90;;;;;;5048429;28;20053;-73
2021/10/28 19:01:14;;;;;;;86.45;46.17;;;6.90;99.90;;;;;;5044609;28;20053;-73
2021/10/28 19:03:43;;;;;;;82.60;41.63;;;6.90;99.90;;;;;;5004967;28;20078;-73
2021/10/28 19:06:11;;;;;;;82.47;43.80;;;6.90;99.90;;;;;;5034804;28;20049;-74
2021/10/28 19:08:40;;;;;;;86.68;45.50;;;6.80;99.90;;;;;;5030779;28;20060;-73
2021/10/28 19:11:09;;;;;;;77.03;42.00;;;6.80;99.90;;;;;;5030372;28;20049;-72
2021/10/28 19:13:38;;;;;;;79.82;42.60;;;6.80;99.90;;;;;;5030199;28;20057;-74
2021/10/28 19:16:06;;;;;;;82.32;42.17;;;6.80;99.90;;;;;;5013797;28;20052;-71
2021/10/28 19:18:33;;;;;;;82.55;41.55;;;6.80;99.90;;;;;;5045968;28;20148;-72
2021/10/28 19:21:01;;;;;;;73.63;40.35;;;6.80;99.90;;;;;;5028957;28;20095;-73
2021/10/28 19:23:28;;;;;;;71.60;38.70;;;6.80;99.90;;;;;;5047643;28;20044;-73
2021/10/28 19:25:55;;;;;;;76.40;38.45;;;6.70;99.90;;;;;;5029090;28;20037;-72
2021/10/28 19:28:25;;;;;;;72.38;38.95;;;6.80;99.90;;;;;;5027241;28;20049;-72
2021/10/28 19:30:57;;;;;;;75.15;38.08;;;6.70;99.90;;;;;;5029477;28;20060;-73
2021/10/28 19:33:36;;;;;;;76.70;42.50;;;6.70;99.90;;;;;;5046897;28;20103;-73
2021/10/28 19:36:07;;;;;;;75.03;39.20;;;6.70;99.90;;;;;;5028990;28;20553;-74
2021/10/28 19:38:50;;;;;;;70.95;37.95;;;6.70;99.90;;;;;;5048066;28;20416;-74
2021/10/28 19:47:12;;;;;;;68.90;35.88;;;6.70;99.90;;;;;;5040240;28;20049;-74
2021/10/28 19:49:43;;;;;;;64.30;32.55;;;6.60;99.90;;;;;;5020333;28;20053;-72
2021/10/28 19:52:13;;;;;;;66.32;34.22;;;6.60;99.90;;;;;;5045295;28;20433;-74
2021/10/28 19:54:47;;;;;;;69.45;35.58;;;6.60;99.90;;;;;;5014073;28;20049;-73
2021/10/28 19:57:23;;;;;;;67.80;33.75;;;6.60;99.90;;;;;;5025520;28;20068;-74
2021/10/28 19:59:58;;;;;;;68.43;35.78;;;6.50;99.90;;;;;;5013555;28;20056;-73
2021/10/28 20:21:33;;;;;;;75.07;39.75;;;6.20;99.90;;;;;;5042232;28;20045;-72
2021/10/28 20:24:00;;;;;;;93.82;49.28;;;6.20;99.90;;;;;;5048988;28;20049;-73
2021/10/28 20:26:27;;;;;;;94.57;46.50;;;6.20;99.90;;;;;;5048937;28;20130;-73
2021/10/28 20:28:58;;;;;;;81.25;40.45;;;6.20;99.90;;;;;;5031655;28;20057;-72
2021/10/28 20:31:26;;;;;;;78.93;36.35;;;6.30;99.90;;;;;;5047591;28;20491;-73
2021/10/28 20:34:11;;;;;;;77.70;40.25;;;6.30;99.90;;;;;;5048566;28;20455;-73
2021/10/28 20:39:25;;;;;;;100.60;51.10;;;6.20;99.90;;;;;;5044408;28;20696;-74
2021/10/28 20:41:53;;;;;;;87.93;46.30;;;6.20;99.90;;;;;;5014149;28;20056;-72
2021/10/28 20:44:20;;;;;;;85.47;44.08;;;6.30;99.90;;;;;;5048747;28;20053;-73
2021/10/28 20:46:47;;;;;;;79.32;41.63;;;6.30;99.90;;;;;;5064263;28;20065;-74
2021/10/28 20:49:14;;;;;;;82.18;38.17;;;6.20;99.90;;;;;;5031024;28;20060;-72
2021/10/28 20:51:41;;;;;;;89.72;42.22;;;6.20;99.90;;;;;;5029128;28;20075;-73
2021/10/28 20:54:08;;;;;;;140.65;67.25;;;6.30;99.90;;;;;;5031236;28;20065;-75
2021/10/28 20:56:36;;;;;;;94.40;42.63;;;6.30;99.90;;;;;;5030966;28;20176;-74
2021/10/28 20:59:02;;;;;;;109.55;51.05;;;6.30;99.90;;;;;;5045789;28;20168;-74
2021/10/28 21:01:29;;;;;;;134.93;61.55;;;6.30;99.90;;;;;;5030378;28;20049;-74
2021/10/28 21:03:57;;;;;;;112.10;53.22;;;6.40;99.90;;;;;;5029617;28;20460;-74
2021/10/28 21:06:24;;;;;;;126.35;58.67;;;6.40;99.90;;;;;;5046086;28;20045;-74
2021/10/28 21:08:50;;;;;;;80.30;35.95;;;6.30;99.90;;;;;;5047307;28;20048;-74
2021/10/28 21:11:17;;;;;;;83.88;34.15;;;6.30;99.90;;;;;;5029505;28;20097;-77
2021/10/28 21:13:44;;;;;;;80.28;36.85;;;6.30;99.90;;;;;;5031157;28;20063;-76
2021/10/28 21:16:11;;;;;;;80.30;36.25;;;6.30;99.90;;;;;;5049384;28;20099;-77
2021/10/28 21:18:38;;;;;;;86.57;37.33;;;6.20;99.90;;;;;;5048299;28;20054;-76
2021/10/28 21:21:05;;;;;;;93.75;42.20;;;6.20;99.90;;;;;;5048829;28;20049;-76
2021/10/28 21:23:32;;;;;;;94.60;44.85;;;6.20;99.90;;;;;;5049105;28;20045;-77
2021/10/28 21:25:59;;;;;;;91.38;43.78;;;6.30;99.90;;;;;;5031224;28;20518;-76
2021/10/28 21:28:29;;;;;;;90.63;40.88;;;6.30;99.90;;;;;;5049322;28;20060;-77
2021/10/28 21:30:55;;;;;;;99.75;43.50;;;6.20;99.90;;;;;;5031874;28;20071;-75
2021/10/28 21:33:22;;;;;;;99.10;41.78;;;6.30;99.90;;;;;;5050040;28;20053;-75
2021/10/28 21:35:49;;;;;;;102.20;43.70;;;6.30;99.90;;;;;;5051282;28;20114;-77
2021/10/28 21:38:17;;;;;;;96.15;39.17;;;6.30;99.90;;;;;;5053518;28;20053;-75
2021/10/28 21:40:44;;;;;;;97.95;40.20;;;6.30;99.90;;;;;;5049225;28;20052;-77
2021/10/28 21:43:12;;;;;;;103.35;40.22;;;6.30;99.90;;;;;;5047014;28;20293;-78